Time;durP1;ratioP1;P1;durP2;ratioP2;P2;SDS_P1;SDS_P2;PMS_P1;PMS_P2;Temp;Humidity;BMP_temperature;BMP_pressure;BME280_temperature;BME280_humidity;BME280_pressure;Samples;Min_cycle;Max_cycle;Signal;HPM_P1;HPM_P2
2023/04/27 00:00:40;;;;;;;8.13;3.38;;;;;;;2.11;81.40;102165.84;6100242;23;20025;-79
2023/04/27 00:03:06;;;;;;;7.25;3.15;;;;;;;2.08;81.74;102166.53;6100284;23;20026;-79
2023/04/27 00:05:37;;;;;;;3.47;3.17;;;;;;;2.07;81.76;102166.88;6101036;23;20019;-79
2023/04/27 00:08:05;;;;;;;4.30;3.42;;;;;;;2.03;81.92;102164.19;6074437;23;20432;-79
2023/04/27 00:10:32;;;;;;;4.95;3.58;;;;;;;1.99;81.60;102164.13;6051265;23;20079;-79
2023/04/27 00:13:00;;;;;;;5.18;3.50;;;;;;;1.93;82.36;102173.41;6100346;23;20070;-79
2023/04/27 00:15:27;;;;;;;4.00;3.60;;;;;;;1.88;82.14;102172.91;6101172;23;20015;-78
2023/04/27 00:17:54;;;;;;;5.25;3.33;;;;;;;1.84;82.58;102172.06;6100578;23;20090;-79
2023/04/27 00:20:20;;;;;;;7.28;3.97;;;;;;;1.82;82.87;102172.41;6100907;23;20075;-78
2023/04/27 00:22:47;;;;;;;7.75;3.72;;;;;;;1.79;82.85;102173.09;6100389;23;20059;-78
2023/04/27 00:25:13;;;;;;;5.45;3.33;;;;;;;1.76;82.59;102176.41;6100113;23;20015;-78
2023/04/27 00:27:40;;;;;;;5.55;3.78;;;;;;;1.72;82.78;102174.81;6075120;23;20027;-78
2023/04/27 00:30:08;;;;;;;5.80;3.78;;;;;;;1.70;82.67;102171.75;6074277;23;20026;-78
2023/04/27 00:32:35;;;;;;;3.85;3.45;;;;;;;1.67;82.68;102171.34;6075051;23;20026;-78
2023/04/27 00:35:01;;;;;;;3.97;3.53;;;;;;;1.64;82.81;102169.41;6099961;23;20015;-78
2023/04/27 00:37:28;;;;;;;4.05;3.58;;;;;;;1.62;82.83;102162.97;6100437;23;20323;-78
2023/04/27 00:39:54;;;;;;;6.53;3.85;;;;;;;1.54;82.91;102156.84;6100383;23;20042;-78
2023/04/27 00:42:23;;;;;;;3.75;3.40;;;;;;;1.51;83.14;102159.38;6100120;23;20030;-78
2023/04/27 00:44:50;;;;;;;4.60;3.85;;;;;;;1.49;83.16;102161.59;6074490;23;20149;-78
2023/04/27 00:47:17;;;;;;;5.97;3.65;;;;;;;1.42;83.30;102167.44;6100384;23;20018;-78
2023/04/27 00:49:44;;;;;;;7.45;3.45;;;;;;;1.38;83.07;102171.09;6098976;23;20019;-78
2023/04/27 00:52:10;;;;;;;4.00;3.63;;;;;;;1.34;83.50;102171.00;6099762;23;20047;-78
2023/04/27 00:54:37;;;;;;;6.47;3.28;;;;;;;1.27;83.33;102168.97;6074865;23;20018;-78
2023/04/27 00:57:04;;;;;;;5.13;3.83;;;;;;;1.20;83.32;102163.56;6099873;23;20534;-78
2023/04/27 00:59:30;;;;;;;4.30;3.80;;;;;;;1.14;83.47;102169.44;6069873;23;20078;-77
2023/04/27 01:01:58;;;;;;;4.38;3.75;;;;;;;1.11;83.52;102177.97;6069358;23;20057;-77
2023/04/27 01:04:25;;;;;;;9.73;4.20;;;;;;;1.08;83.79;102168.94;6071213;23;20025;-78
2023/04/27 01:06:52;;;;;;;5.60;4.00;;;;;;;1.09;83.80;102162.56;6071483;23;20071;-78
2023/04/27 01:09:20;;;;;;;6.25;4.13;;;;;;;1.09;83.71;102162.56;6069754;23;20019;-78
2023/04/27 01:11:48;;;;;;;9.88;4.72;;;;;;;1.09;84.02;102154.72;6069869;23;20031;-78
2023/04/27 01:14:16;;;;;;;7.60;4.15;;;;;;;1.10;84.35;102155.47;6069198;23;20023;-78
2023/04/27 01:16:43;;;;;;;4.60;4.00;;;;;;;1.08;84.32;102152.44;6070134;23;20102;-78
2023/04/27 01:19:09;;;;;;;5.07;4.13;;;;;;;1.04;84.89;102147.09;6070656;23;20015;-78
2023/04/27 01:21:36;;;;;;;6.95;4.88;;;;;;;1.02;84.82;102159.78;6071776;23;20027;-78
2023/04/27 01:24:06;;;;;;;4.72;3.88;;;;;;;0.99;85.01;102152.59;6069175;23;20016;-78
2023/04/27 01:26:32;;;;;;;5.95;4.10;;;;;;;1.00;85.06;102149.63;6069933;23;20374;-78
2023/04/27 01:28:59;;;;;;;7.53;4.10;;;;;;;0.99;85.08;102150.72;6070949;23;20039;-78
2023/04/27 01:31:26;;;;;;;6.45;4.65;;;;;;;0.97;85.25;102165.28;6070194;23;20102;-78
2023/04/27 01:33:52;;;;;;;5.93;3.55;;;;;;;0.93;85.08;102172.28;6069214;23;20019;-77
2023/04/27 01:36:19;;;;;;;5.00;3.47;;;;;;;0.89;85.32;102171.44;6069633;23;20470;-77
2023/04/27 01:38:47;;;;;;;4.65;3.85;;;;;;;0.87;85.12;102163.16;6069863;23;20016;-78
2023/04/27 01:41:13;;;;;;;5.25;4.10;;;;;;;0.85;84.95;102154.88;6069205;23;20536;-77
2023/04/27 01:43:42;;;;;;;3.88;3.58;;;;;;;0.84;84.81;102150.72;6071776;23;20022;-79
2023/04/27 01:46:11;;;;;;;4.82;3.55;;;;;;;0.82;85.20;102150.28;6069307;23;20507;-78
2023/04/27 01:48:39;;;;;;;3.72;3.20;;;;;;;0.79;84.57;102148.38;6071110;23;20046;-77
2023/04/27 01:51:05;;;;;;;4.78;3.67;;;;;;;0.74;84.70;102144.16;6069199;23;20378;-77
2023/04/27 01:53:32;;;;;;;6.18;3.97;;;;;;;0.76;85.22;102141.19;6070285;23;20019;-77
2023/04/27 01:55:59;;;;;;;4.15;3.78;;;;;;;0.73;85.38;102140.00;6069061;23;20423;-77
2023/04/27 01:58:26;;;;;;;8.07;4.18;;;;;;;0.72;85.36;102140.34;6047401;23;20015;-77
2023/04/27 02:00:53;;;;;;;7.90;4.53;;;;;;;0.64;85.57;102136.78;6074731;23;20074;-77
2023/04/27 02:03:19;;;;;;;6.45;4.72;;;;;;;0.63;85.72;102133.41;6073718;23;20477;-77
2023/04/27 02:05:49;;;;;;;4.25;3.90;;;;;;;0.64;86.42;102139.41;6074592;23;20027;-77
2023/04/27 02:08:15;;;;;;;6.50;4.43;;;;;;;0.62;86.43;102137.13;6074309;23;20019;-77
2023/04/27 02:10:43;;;;;;;7.20;3.38;;;;;;;0.61;86.20;102138.22;6051047;23;20404;-77
2023/04/27 02:13:09;;;;;;;6.25;3.83;;;;;;;0.58;86.01;102140.75;6073396;23;20445;-77
2023/04/27 02:15:36;;;;;;;3.47;3.10;;;;;;;0.56;86.33;102138.44;6074653;23;20026;-78
2023/04/27 02:18:03;;;;;;;8.82;3.78;;;;;;;0.53;86.31;102144.38;6099603;23;20019;-77
2023/04/27 02:20:30;;;;;;;5.03;3.60;;;;;;;0.50;86.33;102145.03;6074795;23;20029;-77
2023/04/27 02:22:59;;;;;;;7.10;3.95;;;;;;;0.48;86.48;102142.00;6073673;23;20453;-78
2023/04/27 02:25:27;;;;;;;6.82;3.28;;;;;;;0.48;86.86;102142.00;6074586;23;20023;-78
2023/04/27 02:27:54;;;;;;;4.00;3.47;;;;;;;0.46;86.88;102138.94;6050364;23;20054;-77
2023/04/27 02:30:21;;;;;;;4.10;3.42;;;;;;;0.45;86.89;102147.91;6074585;23;20114;-77
2023/04/27 02:32:48;;;;;;;4.10;3.10;;;;;;;0.43;86.72;102138.84;6100175;23;20015;-77
2023/04/27 02:35:15;;;;;;;3.88;3.58;;;;;;;0.40;86.86;102137.66;6049916;23;20496;-78
2023/04/27 02:37:41;;;;;;;5.22;3.25;;;;;;;0.39;86.78;102140.66;6100642;23;20014;-77
2023/04/27 02:40:08;;;;;;;3.75;3.38;;;;;;;0.35;86.56;102132.69;6073899;23;20018;-77
2023/04/27 02:42:37;;;;;;;4.53;3.88;;;;;;;0.33;86.69;102133.03;6100441;23;20018;-77
2023/04/27 02:45:07;;;;;;;4.88;4.03;;;;;;;0.29;86.70;102124.31;6099757;23;20023;-77
2023/04/27 02:47:35;;;;;;;4.43;3.70;;;;;;;0.28;86.87;102122.78;6073927;23;20019;-77
2023/04/27 02:50:02;;;;;;;9.00;4.00;;;;;;;0.26;87.04;102130.22;6073874;23;20093;-77
2023/04/27 02:52:32;;;;;;;10.18;4.35;;;;;;;0.24;86.92;102123.78;6074545;23;20015;-77
2023/04/27 02:54:59;;;;;;;8.82;4.25;;;;;;;0.20;87.16;102118.44;6050026;23;20074;-77
2023/04/27 02:57:26;;;;;;;8.25;4.35;;;;;;;0.20;87.23;102117.69;6100463;23;20074;-76
2023/04/27 02:59:53;;;;;;;6.13;4.13;;;;;;;0.18;87.51;102114.66;6099552;23;20430;-78
2023/04/27 03:02:20;;;;;;;4.97;4.15;;;;;;;0.14;87.31;102122.41;6099513;23;20023;-76
2023/04/27 03:04:50;;;;;;;7.63;4.93;;;;;;;0.11;87.46;102128.31;6074493;23;20369;-77
2023/04/27 03:07:17;;;;;;;5.88;4.30;;;;;;;0.08;87.56;102123.72;6100156;23;20033;-77
2023/04/27 03:09:43;;;;;;;4.75;4.22;;;;;;;0.05;87.07;102128.88;6074466;23;20470;-77
2023/04/27 03:12:09;;;;;;;4.68;4.22;;;;;;;-0.01;87.47;102128.38;6099533;23;20019;-77
2023/04/27 03:14:36;;;;;;;4.88;4.10;;;;;;;-0.01;87.52;102128.38;6050561;23;20022;-77
2023/04/27 03:17:02;;;;;;;5.90;4.07;;;;;;;-0.03;87.23;102130.56;6049564;23;20019;-77
2023/04/27 03:19:29;;;;;;;4.80;3.83;;;;;;;-0.05;87.40;102138.00;6074551;23;20023;-78
2023/04/27 03:21:56;;;;;;;8.43;4.63;;;;;;;-0.04;87.58;102137.66;6049808;23;20442;-77
2023/04/27 03:24:24;;;;;;;5.85;4.05;;;;;;;-0.06;87.69;102141.69;6074743;23;20023;-77
2023/04/27 03:26:51;;;;;;;4.20;3.80;;;;;;;-0.06;88.08;102137.22;6049997;23;20026;-77
2023/04/27 03:29:19;;;;;;;7.95;4.18;;;;;;;-0.08;87.92;102144.66;6050304;23;20018;-77
2023/04/27 03:31:46;;;;;;;4.40;3.97;;;;;;;-0.12;87.54;102140.41;6073678;23;20018;-76
2023/04/27 03:34:12;;;;;;;4.72;3.83;;;;;;;-0.14;87.97;102137.34;6073857;23;20023;-77
2023/04/27 03:36:39;;;;;;;4.57;3.92;;;;;;;-0.15;88.07;102131.34;6074346;23;20023;-77
2023/04/27 03:39:08;;;;;;;5.93;4.55;;;;;;;-0.14;88.63;102137.34;6073354;23;20023;-77
2023/04/27 03:41:35;;;;;;;9.02;4.20;;;;;;;-0.14;88.58;102137.34;6074126;23;20322;-77
2023/04/27 03:44:02;;;;;;;6.43;4.18;;;;;;;-0.17;88.50;102132.78;6049051;23;20055;-77
2023/04/27 03:46:28;;;;;;;4.80;4.30;;;;;;;-0.17;88.39;102138.00;6050226;23;20023;-76
2023/04/27 03:48:55;;;;;;;4.72;4.15;;;;;;;-0.20;88.67;102142.06;6073567;23;20046;-76
2023/04/27 03:51:21;;;;;;;5.65;4.38;;;;;;;-0.21;88.82;102137.16;6050333;23;20079;-77
2023/04/27 03:53:48;;;;;;;5.95;4.72;;;;;;;-0.20;89.03;102143.91;6050489;23;20126;-76
2023/04/27 03:56:15;;;;;;;6.15;4.70;;;;;;;-0.22;89.27;102139.00;6099330;23;20023;-76
2023/04/27 03:58:41;;;;;;;4.97;4.00;;;;;;;-0.22;89.03;102139.00;6099134;23;20023;-76
2023/04/27 04:01:15;;;;;;;7.70;4.45;;;;;;;-0.24;89.08;102138.56;6050570;23;20015;-76
2023/04/27 04:03:42;;;;;;;9.20;5.10;;;;;;;-0.27;89.28;102136.63;6073924;23;20027;-76
2023/04/27 04:06:10;;;;;;;6.22;4.93;;;;;;;-0.28;89.26;102147.41;6073393;23;20019;-76
2023/04/27 04:08:37;;;;;;;11.35;5.70;;;;;;;-0.29;89.32;102138.81;6074131;23;20476;-76
2023/04/27 04:11:04;;;;;;;7.57;5.18;;;;;;;-0.30;88.85;102137.28;6099011;23;20034;-76
2023/04/27 04:13:34;;;;;;;7.80;4.85;;;;;;;-0.34;89.13;102142.41;6072800;23;20073;-76
2023/04/27 04:16:03;;;;;;;6.65;5.10;;;;;;;-0.32;88.99;102142.06;6072758;23;20019;-77
2023/04/27 04:18:30;;;;;;;7.53;4.60;;;;;;;-0.31;89.30;102148.06;6073597;23;20019;-76
2023/04/27 04:20:56;;;;;;;5.35;4.60;;;;;;;-0.32;88.93;102146.53;6072407;23;20335;-76
2023/04/27 04:23:23;;;;;;;5.07;4.35;;;;;;;-0.37;89.05;102147.53;6073724;23;20023;-77
2023/04/27 04:25:50;;;;;;;7.18;4.82;;;;;;;-0.37;88.82;102155.38;6073755;23;20023;-76
2023/04/27 04:28:17;;;;;;;10.20;4.97;;;;;;;-0.38;89.02;102154.63;6049234;23;20026;-76
2023/04/27 04:30:44;;;;;;;8.88;4.95;;;;;;;-0.37;88.92;102158.75;6074206;23;20039;-76
2023/04/27 04:33:11;;;;;;;5.88;4.72;;;;;;;-0.36;89.00;102164.75;6098815;23;20026;-76
2023/04/27 04:35:38;;;;;;;9.13;5.43;;;;;;;-0.37;88.92;102168.47;6099657;23;20492;-77
2023/04/27 04:38:04;;;;;;;9.07;5.53;;;;;;;-0.37;89.00;102169.22;6100063;23;20022;-76
2023/04/27 04:40:31;;;;;;;11.82;5.60;;;;;;;-0.37;89.01;102168.47;6074925;23;20015;-76
2023/04/27 04:42:57;;;;;;;5.85;4.90;;;;;;;-0.34;88.93;102163.34;6073709;23;20027;-77
2023/04/27 04:45:24;;;;;;;10.80;5.18;;;;;;;-0.29;88.90;102172.06;6074801;23;20110;-77
2023/04/27 04:47:53;;;;;;;10.40;5.50;;;;;;;-0.23;88.91;102176.75;6050743;23;20023;-77
2023/04/27 04:50:19;;;;;;;6.57;5.00;;;;;;;-0.18;88.73;102173.13;6100270;23;20021;-77
2023/04/27 04:52:46;;;;;;;10.07;4.95;;;;;;;-0.12;88.61;102177.81;6051116;23;20461;-77
2023/04/27 04:55:13;;;;;;;5.45;4.18;;;;;;;-0.07;87.98;102171.59;6073912;23;20023;-78
2023/04/27 04:57:40;;;;;;;6.93;5.13;;;;;;;-0.03;88.41;102175.06;6074324;23;20025;-77
2023/04/27 05:00:11;;;;;;;6.93;5.13;;;;;;;0.03;88.17;102173.72;6069189;23;20180;-77
2023/04/27 05:02:41;;;;;;;6.65;5.18;;;;;;;0.08;88.54;102178.72;6070294;23;20027;-77
2023/04/27 05:05:08;;;;;;;6.68;5.15;;;;;;;0.17;88.19;102173.34;6045467;23;20098;-77
2023/04/27 05:07:36;;;;;;;6.28;5.00;;;;;;;0.23;88.49;102174.66;6070144;23;20087;-77
2023/04/27 05:10:03;;;;;;;12.70;7.65;;;;;;;0.29;88.25;102168.84;6069659;23;20023;-76
2023/04/27 05:12:29;;;;;;;11.52;5.43;;;;;;;0.32;88.61;102168.19;6069729;23;20050;-77
2023/04/27 05:14:56;;;;;;;10.95;5.97;;;;;;;0.54;88.96;102171.34;6069775;23;20026;-77
2023/04/27 05:17:22;;;;;;;10.55;6.50;;;;;;;2.10;88.99;102171.44;6072138;23;20015;-77
2023/04/27 05:19:49;;;;;;;9.38;6.20;;;;;;;4.34;81.70;102173.63;6071866;23;20071;-76
2023/04/27 05:22:15;;;;;;;6.55;5.32;;;;;;;5.91;74.20;102172.84;6071085;23;20051;-76
2023/04/27 05:24:42;;;;;;;8.65;5.95;;;;;;;7.15;68.33;102177.53;6071652;23;20050;-77
2023/04/27 05:27:08;;;;;;;7.00;5.40;;;;;;;8.04;63.97;102170.03;6070143;23;20046;-78
2023/04/27 05:29:35;;;;;;;7.57;6.07;;;;;;;8.71;60.92;102176.09;6070920;23;20075;-77
2023/04/27 05:32:02;;;;;;;6.80;6.00;;;;;;;9.35;57.76;102178.16;6071016;23;20027;-77
2023/04/27 05:34:28;;;;;;;10.75;5.85;;;;;;;9.91;55.87;102182.06;6070051;23;20023;-77
2023/04/27 05:36:55;;;;;;;6.60;5.95;;;;;;;10.43;54.08;102188.97;6069508;23;20082;-77
2023/04/27 05:39:21;;;;;;;6.82;5.90;;;;;;;10.87;52.93;102195.91;6071711;23;20016;-77
2023/04/27 05:41:48;;;;;;;9.63;5.88;;;;;;;11.21;51.77;102193.78;6071276;23;20019;-77
2023/04/27 05:44:14;;;;;;;14.98;6.30;;;;;;;11.48;50.92;102198.28;6069168;23;20023;-77
2023/04/27 05:46:41;;;;;;;8.90;5.82;;;;;;;11.69;50.03;102195.94;6046243;23;20023;-77
2023/04/27 05:49:07;;;;;;;8.27;5.88;;;;;;;11.27;51.16;102186.81;6068649;23;20438;-78
2023/04/27 05:51:34;;;;;;;8.93;6.35;;;;;;;11.59;51.35;102194.25;6071695;23;20473;-78
2023/04/27 05:54:00;;;;;;;8.63;5.85;;;;;;;11.91;49.23;102192.88;6068877;23;20043;-78
2023/04/27 05:56:27;;;;;;;6.95;6.05;;;;;;;11.92;49.12;102192.47;6069304;23;20458;-78
2023/04/27 05:58:54;;;;;;;15.10;6.72;;;;;;;12.07;49.54;102200.16;6078017;23;20070;-78
2023/04/27 06:01:20;;;;;;;8.23;6.03;;;;;;;12.35;49.31;102194.94;6100222;23;20023;-78
2023/04/27 06:03:47;;;;;;;10.25;6.70;;;;;;;12.28;48.97;102199.69;6100736;23;20023;-78
2023/04/27 06:06:14;;;;;;;9.35;6.18;;;;;;;12.05;49.20;102195.22;6099744;23;20019;-78
2023/04/27 06:08:40;;;;;;;9.82;6.47;;;;;;;11.72;50.28;102197.03;6100356;23;20023;-78
2023/04/27 06:11:06;;;;;;;7.93;5.97;;;;;;;11.51;51.37;102197.44;6099079;23;20046;-78
2023/04/27 06:13:33;;;;;;;7.35;5.72;;;;;;;11.18;52.06;102197.28;6074399;23;20019;-78
2023/04/27 06:16:00;;;;;;;6.60;5.47;;;;;;;10.62;52.83;102193.66;6097632;23;20023;-79
2023/04/27 06:18:27;;;;;;;6.70;5.80;;;;;;;10.02;54.53;102187.22;6074317;23;20144;-79
2023/04/27 06:20:58;;;;;;;10.00;5.75;;;;;;;9.46;55.39;102189.44;6074592;23;20023;-79
2023/04/27 06:23:25;;;;;;;10.18;5.70;;;;;;;9.03;57.29;102183.78;6099881;23;20049;-79
2023/04/27 06:25:51;;;;;;;8.15;5.93;;;;;;;8.71;58.20;102184.06;6074600;23;20481;-79
2023/04/27 06:28:18;;;;;;;12.73;5.93;;;;;;;8.59;59.53;102189.81;6100740;23;20022;-79
2023/04/27 06:30:44;;;;;;;11.80;5.47;;;;;;;8.61;59.25;102198.91;6051351;23;20457;-80
2023/04/27 06:33:11;;;;;;;11.05;6.25;;;;;;;8.71;60.20;102188.63;6100232;23;20027;-80
2023/04/27 06:35:37;;;;;;;9.98;5.45;;;;;;;8.61;60.24;102190.19;6074417;23;20021;-79
2023/04/27 06:38:04;;;;;;;12.23;7.10;;;;;;;8.30;60.89;102184.69;6098882;23;20015;-79
2023/04/27 06:40:34;;;;;;;6.78;5.90;;;;;;;8.19;61.74;102193.84;6074840;23;20019;-80
2023/04/27 06:43:00;;;;;;;7.00;5.70;;;;;;;8.15;62.29;102195.75;6099844;23;20019;-81
2023/04/27 06:45:27;;;;;;;11.40;5.75;;;;;;;8.17;62.53;102196.88;6100925;23;20019;-79
2023/04/27 06:47:54;;;;;;;6.95;4.93;;;;;;;8.14;62.15;102192.34;6101199;23;20018;-78
2023/04/27 06:50:20;;;;;;;7.57;5.03;;;;;;;8.13;62.38;102192.72;6075192;23;20030;-79
2023/04/27 06:52:47;;;;;;;6.55;5.80;;;;;;;8.16;62.82;102197.25;6100476;23;20062;-80
2023/04/27 06:55:13;;;;;;;7.22;5.20;;;;;;;8.23;62.82;102197.22;6100502;23;20019;-78
2023/04/27 06:57:40;;;;;;;7.32;5.10;;;;;;;8.37;62.78;102191.13;6100979;23;20019;-80
2023/04/27 07:00:07;;;;;;;9.45;5.40;;;;;;;8.62;62.91;102191.69;6045358;23;20055;-78
2023/04/27 07:02:34;;;;;;;6.00;4.72;;;;;;;8.86;61.52;102192.66;6046311;23;20092;-82
2023/04/27 07:05:00;;;;;;;9.88;4.55;;;;;;;9.09;61.34;102197.41;6069819;23;20030;-81
2023/04/27 07:07:27;;;;;;;8.27;4.28;;;;;;;9.09;60.72;102194.75;6069296;23;20394;-83
2023/04/27 07:09:54;;;;;;;6.80;4.30;;;;;;;9.06;61.17;102192.88;6070011;23;20064;-79
2023/04/27 07:12:20;;;;;;;4.97;4.40;;;;;;;9.07;60.93;102191.72;6071655;23;20071;-80
2023/04/27 07:14:49;;;;;;;6.35;4.60;;;;;;;9.20;60.20;102196.13;6071630;23;20485;-82
2023/04/27 07:17:16;;;;;;;5.07;4.05;;;;;;;9.22;60.11;102196.50;6071304;23;20027;-80
2023/04/27 07:19:42;;;;;;;5.95;3.90;;;;;;;9.32;59.28;102200.19;6072166;23;20102;-79
2023/04/27 07:22:09;;;;;;;5.25;3.97;;;;;;;9.31;58.96;102198.69;6070752;23;20087;-81
2023/04/27 07:24:35;;;;;;;4.05;3.63;;;;;;;9.28;59.41;102202.91;6069975;23;20024;-82
2023/04/27 07:27:02;;;;;;;4.20;3.47;;;;;;;9.41;58.45;102199.75;6071136;23;20027;-82
2023/04/27 07:29:29;;;;;;;3.85;3.45;;;;;;;9.64;57.48;102199.84;6069645;23;20031;-82
2023/04/27 07:31:57;;;;;;;4.45;3.22;;;;;;;9.77;56.48;102203.50;6071268;23;20019;-81
2023/04/27 07:34:23;;;;;;;3.33;2.92;;;;;;;9.87;56.45;102204.53;6071754;23;20048;-81
2023/04/27 07:36:53;;;;;;;3.53;3.22;;;;;;;9.85;56.08;102190.88;6045451;23;20023;-80
2023/04/27 07:39:20;;;;;;;3.28;2.97;;;;;;;9.89;54.78;102192.34;6071220;23;20028;-81
2023/04/27 07:41:47;;;;;;;4.43;3.38;;;;;;;10.04;55.20;102199.00;6071585;23;20457;-80
2023/04/27 07:44:14;;;;;;;4.80;3.08;;;;;;;10.22;54.11;102190.06;6071028;23;20476;-80
2023/04/27 07:46:40;;;;;;;6.18;3.03;;;;;;;10.21;54.04;102193.88;6071438;23;20501;-81
2023/04/27 07:49:06;;;;;;;4.30;3.30;;;;;;;10.40;53.86;102195.13;6071372;23;20023;-82
2023/04/27 07:51:33;;;;;;;7.72;3.33;;;;;;;10.40;53.29;102195.88;6045701;23;20028;-81
2023/04/27 07:54:02;;;;;;;4.32;3.17;;;;;;;10.36;52.61;102197.84;6069467;23;20019;-81
2023/04/27 07:56:28;;;;;;;5.45;3.00;;;;;;;10.40;52.55;102197.81;6069382;23;20023;-81
2023/04/27 07:58:55;;;;;;;3.38;2.95;;;;;;;10.48;53.13;102205.25;6078136;23;20023;-80
2023/04/27 08:01:22;;;;;;;6.45;3.10;;;;;;;10.62;52.15;102191.00;6074557;23;20021;-81
2023/04/27 08:03:48;;;;;;;3.72;2.83;;;;;;;10.76;52.12;102195.34;6074448;23;20213;-82
2023/04/27 08:06:17;;;;;;;5.63;3.10;;;;;;;10.75;52.01;102193.84;6073585;23;20495;-81
2023/04/27 08:08:44;;;;;;;3.67;3.20;;;;;;;10.72;51.49;102190.06;6100168;23;20086;-79
2023/04/27 08:11:11;;;;;;;8.05;3.30;;;;;;;10.69;50.97;102188.22;6100355;23;20449;-79
2023/04/27 08:13:37;;;;;;;6.05;3.22;;;;;;;10.78;51.76;102198.34;6101045;23;20428;-79
2023/04/27 08:16:04;;;;;;;3.80;3.50;;;;;;;10.86;51.34;102202.38;6101135;23;20015;-79
2023/04/27 08:18:31;;;;;;;4.78;3.08;;;;;;;11.10;50.14;102198.56;6075764;23;20051;-81
2023/04/27 08:20:58;;;;;;;5.50;3.28;;;;;;;11.29;49.88;102208.50;6050766;23;20449;-79
2023/04/27 08:23:28;;;;;;;6.63;3.15;;;;;;;11.31;49.84;102200.09;6101395;23;20476;-82
2023/04/27 08:25:55;;;;;;;3.67;3.05;;;;;;;11.47;48.92;102200.19;6101424;23;20430;-82
2023/04/27 08:28:22;;;;;;;3.92;2.75;;;;;;;11.46;48.76;102195.25;6101452;23;20513;-81
2023/04/27 08:30:48;;;;;;;5.18;3.10;;;;;;;11.44;48.90;102203.66;6051292;23;20042;-82
2023/04/27 08:33:15;;;;;;;3.20;2.92;;;;;;;11.51;48.95;102203.53;6101086;23;20011;-80
2023/04/27 08:35:42;;;;;;;4.10;2.92;;;;;;;11.61;48.18;102202.56;6100944;23;20015;-75
2023/04/27 08:38:08;;;;;;;3.40;3.00;;;;;;;11.53;48.29;102197.78;6051342;23;20119;-75
2023/04/27 08:40:35;;;;;;;3.22;2.92;;;;;;;11.56;47.51;102184.41;6101363;23;20088;-78
2023/04/27 08:43:01;;;;;;;3.20;2.90;;;;;;;11.61;48.36;102188.47;6101037;23;20038;-79
2023/04/27 08:45:27;;;;;;;2.88;2.60;;;;;;;11.68;48.68;102180.34;6100595;23;20090;-79
2023/04/27 08:47:54;;;;;;;5.05;2.70;;;;;;;11.86;47.67;102196.03;6101471;23;20027;-80
2023/04/27 08:50:22;;;;;;;3.22;2.75;;;;;;;11.99;47.07;102196.91;6100807;23;20011;-79
2023/04/27 08:52:49;;;;;;;3.38;3.13;;;;;;;12.12;45.93;102188.97;6101574;23;20019;-79
2023/04/27 08:55:16;;;;;;;2.80;2.60;;;;;;;12.13;45.57;102191.22;6101134;23;20913;-79
2023/04/27 08:57:53;;;;;;;2.78;2.58;;;;;;;12.15;46.20;102194.25;6075938;23;20023;-79
2023/04/27 09:00:20;;;;;;;3.88;2.63;;;;;;;12.34;45.27;102190.78;6070211;23;20103;-79
2023/04/27 09:02:47;;;;;;;6.93;3.15;;;;;;;12.39;46.83;102186.09;6072407;23;20469;-79
2023/04/27 09:05:18;;;;;;;3.90;3.17;;;;;;;12.46;45.84;102184.00;6071568;23;20023;-79
2023/04/27 09:08:00;;;;;;;3.08;2.80;;;;;;;12.55;46.23;102184.19;6072589;23;20469;-79
2023/04/27 09:10:28;;;;;;;4.35;2.25;;;;;;;12.48;44.12;102192.34;6072572;23;20022;-79
2023/04/27 09:12:57;;;;;;;2.80;2.60;;;;;;;12.64;43.55;102188.94;6072254;23;20477;-79
2023/04/27 09:15:23;;;;;;;3.70;2.33;;;;;;;12.86;43.21;102195.25;6072540;23;20043;-79
2023/04/27 09:17:55;;;;;;;3.17;2.83;;;;;;;12.97;43.05;102176.28;6071937;23;20024;-80
2023/04/27 09:20:22;;;;;;;3.50;3.17;;;;;;;13.01;42.95;102182.28;6072795;23;20442;-79
2023/04/27 09:22:52;;;;;;;3.60;3.25;;;;;;;13.15;42.63;102176.59;6071278;23;20015;-80
2023/04/27 09:25:27;;;;;;;2.97;2.78;;;;;;;13.19;43.20;102187.97;6071910;23;20019;-78
2023/04/27 09:27:55;;;;;;;5.22;3.35;;;;;;;13.24;42.09;102182.06;6072395;23;20034;-79
2023/04/27 09:30:21;;;;;;;3.05;2.85;;;;;;;13.24;42.67;102175.97;6070445;23;20057;-80
2023/04/27 09:32:55;;;;;;;3.40;3.10;;;;;;;13.42;43.24;102178.19;6071832;23;20016;-78
2023/04/27 09:35:30;;;;;;;3.58;3.25;;;;;;;13.46;43.57;102163.53;6072391;23;20354;-79
2023/04/27 09:37:58;;;;;;;4.40;3.45;;;;;;;13.66;42.72;102166.03;6072055;23;20102;-80
2023/04/27 09:40:28;;;;;;;3.35;3.05;;;;;;;13.73;43.11;102171.19;6072342;23;20022;-78
2023/04/27 09:42:57;;;;;;;4.28;3.53;;;;;;;13.92;41.83;102169.50;6072369;23;20020;-78
2023/04/27 09:45:24;;;;;;;5.55;3.50;;;;;;;14.16;40.38;102169.91;6072137;23;20026;-80
2023/04/27 09:47:51;;;;;;;7.22;3.63;;;;;;;14.05;40.65;102164.88;6071865;23;20058;-79
2023/04/27 09:50:19;;;;;;;5.05;3.40;;;;;;;14.00;41.09;102168.84;6072042;23;20025;-77
2023/04/27 09:52:46;;;;;;;4.65;3.50;;;;;;;13.95;42.07;102166.72;6071546;23;20023;-77
2023/04/27 09:55:19;;;;;;;4.97;3.65;;;;;;;14.28;41.53;102167.22;6071933;23;20015;-81
2023/04/27 09:57:57;;;;;;;4.47;3.53;;;;;;;14.35;41.19;102167.00;6070669;23;20030;-80
2023/04/27 10:00:36;;;;;;;3.90;3.60;;;;;;;14.43;41.21;102154.16;6074986;23;20027;-80
2023/04/27 10:03:14;;;;;;;3.67;3.35;;;;;;;14.64;40.29;102163.44;6074525;23;20026;-80
2023/04/27 10:05:47;;;;;;;4.63;3.50;;;;;;;14.53;39.24;102163.03;6100959;23;20023;-80
2023/04/27 10:08:14;;;;;;;4.00;3.50;;;;;;;14.67;39.50;102165.25;6100486;23;20018;-80
2023/04/27 10:10:42;;;;;;;5.88;3.65;;;;;;;14.74;38.31;102164.28;6075350;23;20026;-80
2023/04/27 10:13:20;;;;;;;4.82;3.03;;;;;;;14.40;40.69;102164.94;6100811;23;20015;-80
2023/04/27 10:15:47;;;;;;;6.38;3.45;;;;;;;14.34;38.51;102156.72;6100470;23;20086;-80
2023/04/27 10:18:25;;;;;;;10.98;3.38;;;;;;;14.41;40.04;102161.09;6074619;23;20027;-80
2023/04/27 10:20:51;;;;;;;6.20;3.42;;;;;;;14.41;38.23;102167.22;6101158;23;20019;-80
2023/04/27 10:23:25;;;;;;;3.38;3.08;;;;;;;14.47;38.70;102151.34;6074701;23;20019;-79
2023/04/27 10:25:53;;;;;;;3.85;3.50;;;;;;;14.64;38.24;102166.13;6101519;23;20492;-80
2023/04/27 10:28:20;;;;;;;5.18;3.30;;;;;;;14.67;39.20;102160.66;6075286;23;20031;-79
2023/04/27 10:30:47;;;;;;;4.63;3.60;;;;;;;14.80;38.53;102165.19;6100500;23;20505;-77
2023/04/27 10:33:16;;;;;;;6.82;4.00;;;;;;;14.70;37.60;102160.97;6074127;23;20030;-79
2023/04/27 10:35:55;;;;;;;4.88;3.65;;;;;;;14.81;37.98;102148.69;6101140;23;20043;-79
2023/04/27 10:38:27;;;;;;;4.50;3.70;;;;;;;15.10;37.67;102153.09;6101167;23;20025;-79
2023/04/27 10:41:03;;;;;;;4.57;3.40;;;;;;;15.25;37.00;102154.06;6101125;23;20050;-79
2023/04/27 10:43:33;;;;;;;7.05;3.60;;;;;;;15.38;37.62;102159.38;6101109;23;20019;-80
2023/04/27 10:46:10;;;;;;;6.80;3.60;;;;;;;15.71;38.36;102157.03;6073958;23;20023;-79
2023/04/27 10:48:42;;;;;;;3.75;3.45;;;;;;;15.73;37.69;102162.72;6101143;23;20091;-79
2023/04/27 10:51:09;;;;;;;;;;;;;;;15.93;40.35;102158.50;6101347;23;20019;-80
2023/04/27 10:53:36;;;;;;;4.10;3.90;;;;;;;15.70;36.99;102150.91;6101111;23;19953;-78
2023/04/27 10:56:05;;;;;;;5.18;4.25;;;;;;;15.79;35.75;102152.91;6100688;23;20019;-79
2023/04/27 10:58:33;;;;;;;3.92;3.63;;;;;;;15.60;36.46;102144.75;6100701;23;20078;-78
2023/04/27 11:01:24;;;;;;;4.20;3.72;;;;;;;15.77;37.75;102144.53;6100254;23;20111;-77
2023/04/27 11:03:59;;;;;;;5.10;3.65;;;;;;;16.00;36.76;102144.75;6074895;23;20090;-79
2023/04/27 11:06:27;;;;;;;4.35;4.05;;;;;;;16.08;35.73;102137.19;6101199;23;20029;-79
2023/04/27 11:08:54;;;;;;;4.32;4.03;;;;;;;15.95;35.80;102145.38;6100522;23;20513;-80
2023/04/27 11:11:21;;;;;;;5.07;3.60;;;;;;;15.91;35.97;102138.63;6101096;23;20018;-78
2023/04/27 11:13:48;;;;;;;3.95;3.65;;;;;;;16.04;35.84;102130.47;6100730;23;20038;-78
2023/04/27 11:16:15;;;;;;;6.68;3.78;;;;;;;16.07;35.73;102127.63;6100601;23;20269;-78
2023/04/27 11:18:42;;;;;;;5.65;3.90;;;;;;;15.89;34.80;102120.28;6074949;23;20015;-78
2023/04/27 11:21:09;;;;;;;4.97;3.92;;;;;;;15.88;35.76;102128.78;6100677;23;20476;-78
2023/04/27 11:23:37;;;;;;;7.80;4.38;;;;;;;15.87;35.16;102119.22;6075412;23;20015;-78
2023/04/27 11:26:25;;;;;;;4.55;4.15;;;;;;;16.06;35.73;102103.91;6100335;23;20015;-78
2023/04/27 11:29:00;;;;;;;4.68;4.20;;;;;;;16.23;34.45;102116.63;6100057;23;20019;-78
2023/04/27 11:31:37;;;;;;;4.30;4.00;;;;;;;16.08;33.72;102112.25;6100723;23;20564;-78